createdAt,value
2019-05-26T00:00:18.573Z,1008.66
2019-05-26T00:01:18.598Z,1008.65
2019-05-26T00:02:18.667Z,1008.70
2019-05-26T00:03:18.654Z,1008.67
2019-05-26T00:04:18.679Z,1008.70
2019-05-26T00:05:18.706Z,1008.65
2019-05-26T00:06:18.734Z,1008.66
2019-05-26T00:07:30.288Z,1008.62
2019-05-26T00:08:18.785Z,1008.60
2019-05-26T00:09:18.821Z,1008.61
2019-05-26T00:10:18.840Z,1008.60
2019-05-26T00:11:18.872Z,1008.58
2019-05-26T00:12:18.894Z,1008.59
2019-05-26T00:13:18.924Z,1008.67
2019-05-26T00:14:18.951Z,1008.71
2019-05-26T00:15:22.404Z,1008.61
2019-05-26T00:16:19.000Z,1008.62
2019-05-26T00:17:19.028Z,1008.69
2019-05-26T00:18:19.056Z,1008.68
2019-05-26T00:19:19.086Z,1008.67
2019-05-26T00:20:19.105Z,1008.69
2019-05-26T00:21:19.135Z,1008.68
2019-05-26T00:22:19.171Z,1008.65
2019-05-26T00:23:19.189Z,1008.63
2019-05-26T00:24:19.214Z,1008.65
2019-05-26T00:25:19.241Z,1008.66
2019-05-26T00:26:19.266Z,1008.66
2019-05-26T00:27:19.296Z,1008.65
2019-05-26T00:28:19.320Z,1008.61
2019-05-26T00:29:19.346Z,1008.60
2019-05-26T00:30:19.382Z,1008.61
2019-05-26T00:31:19.418Z,1008.59
2019-05-26T00:32:19.435Z,1008.62
2019-05-26T00:33:19.456Z,1008.58
2019-05-26T00:34:19.479Z,1008.55
2019-05-26T00:35:19.507Z,1008.61
2019-05-26T00:36:19.542Z,1008.56
2019-05-26T00:37:19.569Z,1008.57
2019-05-26T00:38:19.587Z,1008.50
2019-05-26T00:39:19.614Z,1008.47
2019-05-26T00:40:19.641Z,1008.47
2019-05-26T00:41:19.673Z,1008.42
2019-05-26T00:42:19.694Z,1008.39
2019-05-26T00:43:19.719Z,1008.38
2019-05-26T00:44:19.746Z,1008.35
2019-05-26T00:45:19.774Z,1008.33
2019-05-26T00:46:19.799Z,1008.40
2019-05-26T00:47:19.827Z,1008.34
2019-05-26T00:48:19.875Z,1008.31
2019-05-26T00:49:19.880Z,1008.30
2019-05-26T00:50:19.908Z,1008.32
2019-05-26T00:51:19.943Z,1008.25
2019-05-26T00:52:19.961Z,1008.27
2019-05-26T00:53:19.992Z,1008.27
2019-05-26T00:54:20.011Z,1008.25
2019-05-26T00:55:20.041Z,1008.21
2019-05-26T00:56:20.065Z,1008.19
2019-05-26T00:57:20.093Z,1008.20
2019-05-26T00:58:20.124Z,1008.19
2019-05-26T00:59:20.151Z,1008.22
2019-05-26T01:00:20.179Z,1008.20
2019-05-26T01:01:20.200Z,1008.21
2019-05-26T01:02:20.224Z,1008.20
2019-05-26T01:03:20.250Z,1008.23
2019-05-26T01:04:20.276Z,1008.19
2019-05-26T01:05:20.302Z,1008.14
2019-05-26T01:06:20.330Z,1008.20
2019-05-26T01:07:20.368Z,1008.16
2019-05-26T01:08:20.388Z,1008.17
2019-05-26T01:09:20.410Z,1008.14
2019-05-26T01:10:20.438Z,1008.14
2019-05-26T01:11:20.465Z,1008.14
2019-05-26T01:12:20.494Z,1008.12
2019-05-26T01:13:20.518Z,1008.09
2019-05-26T01:14:20.550Z,1008.09
2019-05-26T01:15:20.576Z,1008.09
2019-05-26T01:16:20.597Z,1008.07
2019-05-26T01:17:20.623Z,1008.10
2019-05-26T01:18:20.646Z,1008.12
2019-05-26T01:19:20.676Z,1008.10
2019-05-26T01:20:20.703Z,1008.13
2019-05-26T01:21:20.732Z,1008.11
2019-05-26T01:22:20.753Z,1008.13
2019-05-26T01:23:20.783Z,1008.17
2019-05-26T01:24:20.808Z,1008.19
2019-05-26T01:25:20.852Z,1008.20
2019-05-26T01:26:20.866Z,1008.20
2019-05-26T01:27:20.888Z,1008.18
2019-05-26T01:28:20.913Z,1008.18
2019-05-26T01:29:20.946Z,1008.18
2019-05-26T01:30:20.966Z,1008.18
2019-05-26T01:31:20.995Z,1008.15
2019-05-26T01:32:21.019Z,1008.12
2019-05-26T01:33:21.052Z,1008.13
2019-05-26T01:34:21.072Z,1008.10
2019-05-26T01:35:21.100Z,1008.10
2019-05-26T01:36:21.131Z,1008.10
2019-05-26T01:37:21.153Z,1008.14
2019-05-26T01:38:24.165Z,1008.12
2019-05-26T01:39:21.206Z,1008.07
2019-05-26T01:40:21.231Z,1008.04
2019-05-26T01:41:21.260Z,1008.03
2019-05-26T01:42:21.296Z,1008.06
2019-05-26T01:43:21.310Z,1008.03
2019-05-26T01:44:21.337Z,1008.05
2019-05-26T01:45:21.364Z,1008.05
2019-05-26T01:46:21.391Z,1008.05
2019-05-26T01:47:21.427Z,1008.07
2019-05-26T01:48:21.444Z,1008.05
2019-05-26T01:49:21.471Z,1008.03
2019-05-26T01:50:21.497Z,1008.01
2019-05-26T01:51:21.525Z,1007.99
2019-05-26T01:52:21.548Z,1008.00
2019-05-26T01:53:21.579Z,1008.02
2019-05-26T01:54:21.603Z,1008.04
2019-05-26T01:55:21.644Z,1008.03
2019-05-26T01:56:21.654Z,1007.99
2019-05-26T01:57:21.685Z,1008.01
2019-05-26T01:58:21.710Z,1008.02
2019-05-26T01:59:21.741Z,1007.98
2019-05-26T02:00:21.766Z,1008.01
2019-05-26T02:01:21.788Z,1007.99
2019-05-26T02:02:21.818Z,1007.99
2019-05-26T02:03:21.841Z,1007.97
2019-05-26T02:04:21.867Z,1007.90
2019-05-26T02:05:21.898Z,1007.89
2019-05-26T02:06:21.919Z,1007.88
2019-05-26T02:07:21.946Z,1007.89
2019-05-26T02:08:21.971Z,1007.85
2019-05-26T02:09:21.998Z,1007.87
2019-05-26T02:10:22.024Z,1007.85
2019-05-26T02:11:22.052Z,1007.87
2019-05-26T02:12:22.083Z,1007.83
2019-05-26T02:13:22.105Z,1007.81
2019-05-26T02:14:22.132Z,1007.80
2019-05-26T02:15:22.157Z,1007.81
2019-05-26T02:16:22.181Z,1007.72
2019-05-26T02:17:22.206Z,1007.79
2019-05-26T02:18:22.232Z,1007.79
2019-05-26T02:19:22.262Z,1007.73
2019-05-26T02:20:22.289Z,1007.74
2019-05-26T02:21:22.314Z,1007.69
2019-05-26T02:22:22.346Z,1007.64
2019-05-26T02:23:22.365Z,1007.63
2019-05-26T02:24:22.394Z,1007.65
2019-05-26T02:25:22.425Z,1007.67
2019-05-26T02:26:22.444Z,1007.60
2019-05-26T02:27:22.470Z,1007.64
2019-05-26T02:28:22.500Z,1007.62
2019-05-26T02:29:22.524Z,1007.65
2019-05-26T02:30:22.550Z,1007.63
2019-05-26T02:31:22.577Z,1007.63
2019-05-26T02:32:22.607Z,1007.60
2019-05-26T02:33:22.629Z,1007.62
2019-05-26T02:34:22.656Z,1007.59
2019-05-26T02:35:22.684Z,1007.64
2019-05-26T02:36:22.715Z,1007.67
2019-05-26T02:37:22.731Z,1007.62
2019-05-26T02:38:26.040Z,1007.61
2019-05-26T02:39:22.793Z,1007.61
2019-05-26T02:40:22.815Z,1007.60
2019-05-26T02:41:22.841Z,1007.64
2019-05-26T02:42:22.863Z,1007.67
2019-05-26T02:43:22.890Z,1007.68
2019-05-26T02:44:22.918Z,1007.65
2019-05-26T02:45:22.941Z,1007.69
2019-05-26T02:46:22.968Z,1007.67
2019-05-26T02:47:22.995Z,1007.64
2019-05-26T02:48:23.022Z,1007.66
2019-05-26T02:49:23.052Z,1007.65
2019-05-26T02:50:23.073Z,1007.66
2019-05-26T02:51:23.100Z,1007.64
2019-05-26T02:52:23.139Z,1007.68
2019-05-26T02:53:24.668Z,1007.64
2019-05-26T02:54:23.179Z,1007.58
2019-05-26T02:55:23.204Z,1007.61
2019-05-26T02:56:23.231Z,1007.65
2019-05-26T02:57:23.255Z,1007.64
2019-05-26T02:58:23.281Z,1007.63
2019-05-26T02:59:23.307Z,1007.63
2019-05-26T03:00:23.339Z,1007.61
2019-05-26T03:01:23.360Z,1007.61
2019-05-26T03:02:23.392Z,1007.63
2019-05-26T03:03:23.416Z,1007.63
2019-05-26T03:04:23.443Z,1007.65
2019-05-26T03:05:23.464Z,1007.64
2019-05-26T03:06:23.489Z,1007.61
2019-05-26T03:07:23.532Z,1007.58
2019-05-26T03:08:23.541Z,1007.60
2019-05-26T03:09:23.943Z,1007.59
2019-05-26T03:10:23.594Z,1007.59
2019-05-26T03:11:23.629Z,1007.64
2019-05-26T03:12:23.646Z,1007.59
2019-05-26T03:13:23.670Z,1007.61
2019-05-26T03:14:23.700Z,1007.64
2019-05-26T03:15:23.724Z,1007.59
2019-05-26T03:16:23.752Z,1007.63
2019-05-26T03:17:23.776Z,1007.58
2019-05-26T03:18:23.808Z,1007.61
2019-05-26T03:19:23.832Z,1007.64
2019-05-26T03:20:23.866Z,1007.59
2019-05-26T03:21:23.880Z,1007.59
2019-05-26T03:22:23.903Z,1007.63
2019-05-26T03:23:23.933Z,1007.62
2019-05-26T03:24:23.963Z,1007.61
2019-05-26T03:25:23.983Z,1007.56
2019-05-26T03:26:24.010Z,1007.57
2019-05-26T03:27:24.031Z,1007.56
2019-05-26T03:28:24.060Z,1007.59
2019-05-26T03:29:24.089Z,1007.55
2019-05-26T03:30:24.113Z,1007.53
2019-05-26T03:31:24.139Z,1007.49
2019-05-26T03:32:24.202Z,1007.50
2019-05-26T03:33:24.187Z,1007.49
2019-05-26T03:34:24.216Z,1007.48
2019-05-26T03:35:24.240Z,1007.49
2019-05-26T03:36:24.279Z,1007.51
2019-05-26T03:37:24.291Z,1007.51
2019-05-26T03:38:24.323Z,1007.50
2019-05-26T03:39:42.295Z,1007.48
2019-05-26T03:40:24.373Z,1007.49
2019-05-26T03:41:24.403Z,1007.49
2019-05-26T03:42:25.433Z,1007.44
2019-05-26T03:43:24.446Z,1007.47
2019-05-26T03:44:27.096Z,1007.45
2019-05-26T03:45:24.498Z,1007.49
2019-05-26T03:46:24.525Z,1007.53
2019-05-26T03:47:24.554Z,1007.53
2019-05-26T03:48:24.577Z,1007.52
2019-05-26T03:49:24.597Z,1007.55
2019-05-26T03:50:24.629Z,1007.54
2019-05-26T03:51:24.653Z,1007.56
2019-05-26T03:52:24.675Z,1007.56
2019-05-26T03:53:24.702Z,1007.54
2019-05-26T03:54:24.731Z,1007.53
2019-05-26T03:55:24.755Z,1007.51
2019-05-26T03:56:24.793Z,1007.45
2019-05-26T03:57:24.818Z,1007.48
2019-05-26T03:58:24.835Z,1007.47
2019-05-26T03:59:24.866Z,1007.46
2019-05-26T04:00:24.894Z,1007.51
2019-05-26T04:01:24.909Z,1007.53
2019-05-26T04:02:24.938Z,1007.48
2019-05-26T04:03:24.962Z,1007.49
2019-05-26T04:04:24.989Z,1007.45
2019-05-26T04:05:25.016Z,1007.44
2019-05-26T04:06:25.047Z,1007.45
2019-05-26T04:07:25.066Z,1007.41
2019-05-26T04:08:25.089Z,1007.44
2019-05-26T04:09:25.123Z,1007.44
2019-05-26T04:10:25.149Z,1007.46
2019-05-26T04:11:25.172Z,1007.40
2019-05-26T04:12:25.196Z,1007.43
2019-05-26T04:13:25.224Z,1007.45
2019-05-26T04:14:25.447Z,1007.43
2019-05-26T04:15:25.284Z,1007.44
2019-05-26T04:16:25.300Z,1007.41
2019-05-26T04:17:25.326Z,1007.44
2019-05-26T04:18:25.351Z,1007.47
2019-05-26T04:19:25.408Z,1007.45
2019-05-26T04:20:25.403Z,1007.49
2019-05-26T04:21:25.427Z,1007.51
2019-05-26T04:22:25.456Z,1007.46
2019-05-26T04:23:25.489Z,1007.46
2019-05-26T04:24:25.515Z,1007.50
2019-05-26T04:25:25.533Z,1007.48
2019-05-26T04:26:25.558Z,1007.47
2019-05-26T04:27:25.632Z,1007.48
2019-05-26T04:28:25.612Z,1007.50
2019-05-26T04:29:25.638Z,1007.48
2019-05-26T04:30:25.662Z,1007.48
2019-05-26T04:31:25.691Z,1007.49
2019-05-26T04:32:25.714Z,1007.50
2019-05-26T04:33:25.741Z,1007.49
2019-05-26T04:34:25.783Z,1007.44
2019-05-26T04:35:25.795Z,1007.48
2019-05-26T04:36:25.818Z,1007.50
2019-05-26T04:37:25.852Z,1007.50
2019-05-26T04:38:25.868Z,1007.45
2019-05-26T04:39:25.904Z,1007.52
2019-05-26T04:40:27.768Z,1007.49
2019-05-26T04:41:25.950Z,1007.50
2019-05-26T04:42:25.982Z,1007.46
2019-05-26T04:43:26.006Z,1007.43
2019-05-26T04:44:26.030Z,1007.42
2019-05-26T04:45:26.053Z,1007.39
2019-05-26T04:46:26.081Z,1007.41
2019-05-26T04:47:26.113Z,1007.38
2019-05-26T04:48:26.134Z,1007.36
2019-05-26T04:49:26.159Z,1007.41
2019-05-26T04:50:26.205Z,1007.44
2019-05-26T04:51:26.217Z,1007.42
2019-05-26T04:52:26.243Z,1007.45
2019-05-26T04:53:26.263Z,1007.45
2019-05-26T04:54:26.291Z,1007.49
2019-05-26T04:55:26.316Z,1007.49
2019-05-26T04:56:26.357Z,1007.50
2019-05-26T04:57:26.368Z,1007.50
2019-05-26T04:58:26.398Z,1007.44
2019-05-26T04:59:26.435Z,1007.50
2019-05-26T05:00:26.445Z,1007.41
2019-05-26T05:01:26.481Z,1007.41
2019-05-26T05:02:26.497Z,1007.42
2019-05-26T05:03:26.526Z,1007.42
2019-05-26T05:04:26.549Z,1007.42
2019-05-26T05:05:26.575Z,1007.46
2019-05-26T05:06:26.617Z,1007.43
2019-05-26T05:07:28.564Z,1007.40
2019-05-26T05:08:26.657Z,1007.44
2019-05-26T05:09:26.682Z,1007.43
2019-05-26T05:10:41.388Z,1007.43
2019-05-26T05:11:26.734Z,1007.45
2019-05-26T05:12:26.761Z,1007.48
2019-05-26T05:13:26.789Z,1007.44
2019-05-26T05:14:26.813Z,1007.45
2019-05-26T05:15:26.844Z,1007.45
2019-05-26T05:16:26.880Z,1007.44
2019-05-26T05:17:26.893Z,1007.46
2019-05-26T05:18:27.008Z,1007.54
2019-05-26T05:19:26.949Z,1007.56
2019-05-26T05:20:26.980Z,1007.57
2019-05-26T05:21:27.006Z,1007.49
2019-05-26T05:22:27.033Z,1007.51
2019-05-26T05:23:27.055Z,1007.52
2019-05-26T05:25:15.358Z,1007.51
2019-05-26T05:26:14.667Z,1007.47
2019-05-26T05:27:14.695Z,1007.53
2019-05-26T05:28:14.723Z,1007.50
2019-05-26T05:29:14.748Z,1007.52
2019-05-26T05:30:14.778Z,1007.50
2019-05-26T05:31:14.811Z,1007.53
2019-05-26T05:32:14.829Z,1007.57
2019-05-26T05:33:14.856Z,1007.51
2019-05-26T05:34:14.884Z,1007.48
2019-05-26T05:35:14.912Z,1007.47
2019-05-26T05:36:14.939Z,1007.56
2019-05-26T05:37:14.966Z,1007.50
2019-05-26T05:38:14.993Z,1007.41
2019-05-26T05:39:15.017Z,1007.45
2019-05-26T05:40:15.051Z,1007.39
2019-05-26T05:41:15.079Z,1007.38
2019-05-26T05:42:15.103Z,1007.45
2019-05-26T05:43:15.127Z,1007.42
2019-05-26T05:44:15.154Z,1007.44
2019-05-26T05:45:15.183Z,1007.40
2019-05-26T05:46:15.213Z,1007.43
2019-05-26T05:47:15.244Z,1007.38
2019-05-26T05:48:15.264Z,1007.35
2019-05-26T05:49:15.323Z,1007.27
2019-05-26T05:50:15.327Z,1007.28
2019-05-26T05:51:15.354Z,1007.27
2019-05-26T05:52:15.376Z,1007.28
2019-05-26T05:53:15.404Z,1007.29
2019-05-26T05:54:15.430Z,1007.25
2019-05-26T05:55:15.456Z,1007.25
2019-05-26T05:56:15.484Z,1007.18
2019-05-26T05:57:15.513Z,1007.22
2019-05-26T05:58:15.546Z,1007.24
2019-05-26T05:59:15.570Z,1007.22
2019-05-26T06:00:15.602Z,1007.24
2019-05-26T06:01:15.629Z,1007.19
2019-05-26T06:02:15.652Z,1007.16
2019-05-26T06:03:18.570Z,1007.21
2019-05-26T06:04:15.713Z,1007.25
2019-05-26T06:05:15.737Z,1007.22
2019-05-26T06:06:15.764Z,1007.22
2019-05-26T06:07:15.795Z,1007.22
2019-05-26T06:08:15.818Z,1007.22
2019-05-26T06:09:15.845Z,1007.20
2019-05-26T06:10:15.871Z,1007.15
2019-05-26T06:11:17.397Z,1007.18
2019-05-26T06:12:15.929Z,1007.16
2019-05-26T06:13:15.953Z,1007.15
2019-05-26T06:14:15.981Z,1007.08
2019-05-26T06:15:17.401Z,1007.11
2019-05-26T06:16:16.035Z,1007.09
2019-05-26T06:17:16.065Z,1007.15
2019-05-26T06:18:16.094Z,1007.10
2019-05-26T06:19:16.118Z,1007.11
2019-05-26T06:20:16.154Z,1007.11
2019-05-26T06:21:16.180Z,1007.10
2019-05-26T06:22:16.205Z,1007.07
2019-05-26T06:23:16.227Z,1007.07
2019-05-26T06:24:16.258Z,1007.06
2019-05-26T06:25:16.293Z,1007.07
2019-05-26T06:26:16.336Z,1007.11
2019-05-26T06:27:16.339Z,1007.14
2019-05-26T06:28:16.367Z,1007.08
2019-05-26T06:29:16.405Z,1007.08
2019-05-26T06:30:16.423Z,1007.04
2019-05-26T06:31:16.478Z,1007.07
2019-05-26T06:32:16.478Z,1007.07
2019-05-26T06:33:16.509Z,1007.02
2019-05-26T06:34:16.533Z,1007.00
2019-05-26T06:35:16.561Z,1006.98
2019-05-26T06:36:16.590Z,1007.10
2019-05-26T06:37:16.616Z,1007.12
2019-05-26T06:38:16.646Z,1007.02
2019-05-26T06:39:16.674Z,1007.09
2019-05-26T06:40:16.700Z,1007.16
2019-05-26T06:41:32.306Z,1007.17
2019-05-26T06:42:16.764Z,1007.15
2019-05-26T06:43:16.782Z,1007.10
2019-05-26T06:44:16.816Z,1007.13
2019-05-26T06:45:16.841Z,1007.13
2019-05-26T06:46:16.874Z,1007.18
2019-05-26T06:47:16.903Z,1007.14
2019-05-26T06:48:16.927Z,1007.11
2019-05-26T06:49:16.950Z,1007.19
2019-05-26T06:50:16.979Z,1007.19
2019-05-26T06:51:17.005Z,1007.19
2019-05-26T06:52:17.036Z,1007.14
2019-05-26T06:53:17.065Z,1007.16
2019-05-26T06:54:17.091Z,1007.16
2019-05-26T06:55:17.118Z,1007.16
2019-05-26T06:56:17.147Z,1007.22
2019-05-26T06:57:17.178Z,1007.22
2019-05-26T06:58:17.204Z,1007.22
2019-05-26T06:59:17.236Z,1007.27
2019-05-26T07:00:17.259Z,1007.34
2019-05-26T07:01:17.293Z,1007.26
2019-05-26T07:02:17.316Z,1007.27
2019-05-26T07:03:17.343Z,1007.21
2019-05-26T07:04:17.375Z,1007.18
2019-05-26T07:05:18.485Z,1007.18
2019-05-26T07:06:17.429Z,1007.26
2019-05-26T07:07:17.458Z,1007.17
2019-05-26T07:08:17.550Z,1007.17
2019-05-26T07:09:17.514Z,1007.25
2019-05-26T07:10:17.545Z,1007.36
2019-05-26T07:11:17.567Z,1007.32
2019-05-26T07:12:17.596Z,1007.27
2019-05-26T07:13:17.633Z,1007.31
2019-05-26T07:14:17.658Z,1007.27
2019-05-26T07:15:17.685Z,1007.22
2019-05-26T07:16:17.708Z,1007.27
2019-05-26T07:17:20.577Z,1007.37
2019-05-26T07:18:17.766Z,1007.42
2019-05-26T07:19:17.795Z,1007.48
2019-05-26T07:20:17.825Z,1007.67
2019-05-26T07:21:17.857Z,1007.46
2019-05-26T07:22:17.883Z,1007.37
2019-05-26T07:23:17.912Z,1007.42
2019-05-26T07:24:17.937Z,1007.51
2019-05-26T07:25:17.963Z,1007.41
2019-05-26T07:26:17.995Z,1007.32
2019-05-26T07:27:18.024Z,1007.23
2019-05-26T07:28:18.049Z,1007.25
2019-05-26T07:29:18.095Z,1007.19
2019-05-26T07:30:18.161Z,1007.20
2019-05-26T07:31:18.135Z,1007.23
2019-05-26T07:32:18.248Z,1007.19
2019-05-26T07:33:18.201Z,1007.23
2019-05-26T07:34:18.225Z,1007.19
2019-05-26T07:35:18.251Z,1007.29
2019-05-26T07:36:18.281Z,1007.20
2019-05-26T07:37:18.309Z,1007.24
2019-05-26T07:38:18.337Z,1007.28
2019-05-26T07:39:18.386Z,1007.28
2019-05-26T07:40:18.400Z,1007.27
2019-05-26T07:41:18.430Z,1007.25
2019-05-26T07:42:18.455Z,1007.16
2019-05-26T07:43:18.482Z,1007.11
2019-05-26T07:44:18.516Z,1007.15
2019-05-26T07:45:18.635Z,1007.07
2019-05-26T07:46:18.572Z,1007.11
2019-05-26T07:47:18.602Z,1007.00
2019-05-26T07:48:18.631Z,1007.05
2019-05-26T07:49:18.658Z,1006.90
2019-05-26T07:50:18.688Z,1006.89
2019-05-26T07:51:18.717Z,1006.92
2019-05-26T07:52:18.744Z,1006.94
2019-05-26T07:53:18.774Z,1006.94
2019-05-26T07:54:25.706Z,1006.88
2019-05-26T07:55:18.833Z,1006.91
2019-05-26T07:56:18.869Z,1006.93
2019-05-26T07:57:18.894Z,1006.90
2019-05-26T07:58:18.927Z,1006.91
2019-05-26T07:59:18.953Z,1006.91
2019-05-26T08:00:18.982Z,1006.98
2019-05-26T08:01:19.013Z,1007.00
2019-05-26T08:02:19.046Z,1006.98
2019-05-26T08:03:19.066Z,1006.98
2019-05-26T08:04:19.093Z,1006.97
2019-05-26T08:05:19.128Z,1006.92
2019-05-26T08:06:19.154Z,1006.94
2019-05-26T08:07:22.865Z,1006.95
2019-05-26T08:08:19.208Z,1006.94
2019-05-26T08:09:19.276Z,1006.91
2019-05-26T08:10:19.265Z,1006.85
2019-05-26T08:11:19.300Z,1006.93
2019-05-26T08:12:26.798Z,1006.89
2019-05-26T08:13:19.360Z,1006.92
2019-05-26T08:14:19.380Z,1006.90
2019-05-26T08:15:19.409Z,1006.89
2019-05-26T08:16:19.437Z,1006.89
2019-05-26T08:17:19.466Z,1006.87
2019-05-26T08:18:19.497Z,1006.88
2019-05-26T08:19:19.526Z,1006.85
2019-05-26T08:20:19.553Z,1006.86
2019-05-26T08:21:19.583Z,1006.86
2019-05-26T08:22:19.610Z,1006.88
2019-05-26T08:23:19.640Z,1006.81
2019-05-26T08:24:19.668Z,1006.80
2019-05-26T08:25:19.696Z,1006.78
2019-05-26T08:26:19.730Z,1006.78
2019-05-26T08:27:19.754Z,1006.77
2019-05-26T08:28:19.782Z,1006.73
2019-05-26T08:29:19.810Z,1006.78
2019-05-26T08:30:19.837Z,1006.75
2019-05-26T08:31:19.868Z,1006.71
2019-05-26T08:32:19.895Z,1006.74
2019-05-26T08:33:19.927Z,1006.76
2019-05-26T08:34:19.954Z,1006.75
2019-05-26T08:35:19.987Z,1006.70
2019-05-26T08:36:20.010Z,1006.75
2019-05-26T08:37:20.039Z,1006.75
2019-05-26T08:38:20.102Z,1006.77
2019-05-26T08:39:20.103Z,1006.76
2019-05-26T08:40:20.207Z,1006.74
2019-05-26T08:41:20.161Z,1006.72
2019-05-26T08:42:28.821Z,1006.73
2019-05-26T08:43:20.213Z,1006.76
2019-05-26T08:44:20.240Z,1006.74
2019-05-26T08:45:21.835Z,1006.78
2019-05-26T08:46:20.297Z,1006.74
2019-05-26T08:47:20.334Z,1006.74
2019-05-26T08:48:20.355Z,1006.74
2019-05-26T08:49:20.385Z,1006.58
2019-05-26T08:50:20.416Z,1006.73
2019-05-26T08:51:20.440Z,1006.68
2019-05-26T08:52:20.477Z,1006.66
2019-05-26T08:53:20.503Z,1006.62
2019-05-26T08:54:20.525Z,1006.66
2019-05-26T08:55:20.554Z,1006.63
2019-05-26T08:56:20.584Z,1006.71
2019-05-26T08:57:20.612Z,1006.63
2019-05-26T08:58:20.639Z,1006.65
2019-05-26T08:59:20.667Z,1006.57
2019-05-26T09:00:20.712Z,1006.60
2019-05-26T09:01:20.725Z,1006.56
2019-05-26T09:02:20.802Z,1006.59
2019-05-26T09:03:20.786Z,1006.58
2019-05-26T09:04:20.812Z,1006.53
2019-05-26T09:05:20.840Z,1006.48
2019-05-26T09:06:20.877Z,1006.49
2019-05-26T09:07:20.904Z,1006.47
2019-05-26T09:08:20.927Z,1006.48
2019-05-26T09:09:20.954Z,1006.47
2019-05-26T09:10:20.982Z,1006.44
2019-05-26T09:11:21.017Z,1006.46
2019-05-26T09:12:21.041Z,1006.42
2019-05-26T09:13:21.068Z,1006.44
2019-05-26T09:14:21.097Z,1006.45
2019-05-26T09:15:21.130Z,1006.41
2019-05-26T09:16:21.153Z,1006.36
2019-05-26T09:17:21.185Z,1006.44
2019-05-26T09:18:21.211Z,1006.42
2019-05-26T09:19:21.239Z,1006.41
2019-05-26T09:20:21.269Z,1006.47
2019-05-26T09:21:21.304Z,1006.50
2019-05-26T09:22:21.327Z,1006.39
2019-05-26T09:23:21.361Z,1006.39
2019-05-26T09:24:21.382Z,1006.52
2019-05-26T09:25:21.412Z,1006.58
2019-05-26T09:26:21.439Z,1006.59
2019-05-26T09:27:21.469Z,1006.58
2019-05-26T09:28:21.503Z,1006.57
2019-05-26T09:29:21.524Z,1006.59
2019-05-26T09:30:21.567Z,1006.53
2019-05-26T09:31:21.585Z,1006.48
2019-05-26T09:32:21.611Z,1006.53
2019-05-26T09:33:21.640Z,1006.47
2019-05-26T09:34:21.670Z,1006.48
2019-05-26T09:35:21.697Z,1006.41
2019-05-26T09:36:21.726Z,1006.35
2019-05-26T09:37:21.764Z,1006.36
2019-05-26T09:38:21.791Z,1006.35
2019-05-26T09:39:21.813Z,1006.37
2019-05-26T09:40:21.845Z,1006.36
2019-05-26T09:41:21.875Z,1006.38
2019-05-26T09:42:22.558Z,1006.32
2019-05-26T09:43:21.932Z,1006.32
2019-05-26T09:44:21.969Z,1006.36
2019-05-26T09:45:21.995Z,1006.33
2019-05-26T09:46:22.022Z,1006.29
2019-05-26T09:47:22.051Z,1006.32
2019-05-26T09:48:22.091Z,1006.31
2019-05-26T09:49:22.109Z,1006.30
2019-05-26T09:50:22.140Z,1006.33
2019-05-26T09:51:22.167Z,1006.25
2019-05-26T09:52:22.197Z,1006.30
2019-05-26T09:53:22.227Z,1006.32
2019-05-26T09:54:22.255Z,1006.34
2019-05-26T09:55:22.294Z,1006.36
2019-05-26T09:56:22.321Z,1006.27
2019-05-26T09:57:22.347Z,1006.26
2019-05-26T09:58:22.377Z,1006.31
2019-05-26T09:59:22.405Z,1006.31
2019-05-26T10:00:22.433Z,1006.30
2019-05-26T10:01:22.471Z,1006.29
2019-05-26T10:02:22.493Z,1006.30
2019-05-26T10:03:22.531Z,1006.31
2019-05-26T10:04:22.569Z,1006.28
2019-05-26T10:05:22.584Z,1006.27
2019-05-26T10:06:22.613Z,1006.27
2019-05-26T10:07:22.645Z,1006.22
2019-05-26T10:08:22.672Z,1006.25
2019-05-26T10:09:22.709Z,1006.38
2019-05-26T10:10:22.731Z,1006.34
2019-05-26T10:11:22.767Z,1006.29
2019-05-26T10:12:22.799Z,1006.24
2019-05-26T10:13:31.470Z,1006.32
2019-05-26T10:14:22.852Z,1006.24
2019-05-26T10:15:22.882Z,1006.14
2019-05-26T10:16:22.914Z,1006.20
2019-05-26T10:17:23.411Z,1006.20
2019-05-26T10:18:22.977Z,1006.19
2019-05-26T10:19:23.004Z,1006.19
2019-05-26T10:20:23.036Z,1006.17
2019-05-26T10:21:23.066Z,1006.15
2019-05-26T10:22:23.094Z,1006.20
2019-05-26T10:23:23.126Z,1006.20
2019-05-26T10:24:23.164Z,1006.23
2019-05-26T10:25:23.194Z,1006.27
2019-05-26T10:26:23.233Z,1006.24
2019-05-26T10:27:23.248Z,1006.22
2019-05-26T10:28:23.278Z,1006.22
2019-05-26T10:29:23.319Z,1006.24
2019-05-26T10:30:23.345Z,1006.18
2019-05-26T10:31:23.373Z,1006.24
2019-05-26T10:32:23.401Z,1006.22
2019-05-26T10:33:23.433Z,1006.20
2019-05-26T10:34:23.462Z,1006.22
2019-05-26T10:35:23.497Z,1006.15
2019-05-26T10:36:23.522Z,1006.12
2019-05-26T10:37:23.553Z,1006.12
2019-05-26T10:38:23.599Z,1006.17
2019-05-26T10:39:23.614Z,1006.13
2019-05-26T10:40:23.645Z,1006.10
2019-05-26T10:41:23.676Z,1006.07
2019-05-26T10:42:23.709Z,1006.04
2019-05-26T10:43:23.734Z,1006.10
2019-05-26T10:44:23.767Z,1006.06
2019-05-26T10:45:23.798Z,1006.07
2019-05-26T10:46:23.825Z,1006.08
2019-05-26T10:47:23.858Z,1006.03
2019-05-26T10:48:23.886Z,1006.07
2019-05-26T10:49:23.919Z,1006.07
2019-05-26T10:50:23.949Z,1006.10
2019-05-26T10:51:23.980Z,1006.14
2019-05-26T10:52:24.016Z,1006.23
2019-05-26T10:53:24.039Z,1006.26
2019-05-26T10:54:24.072Z,1006.09
2019-05-26T10:55:24.105Z,1006.09
2019-05-26T10:56:24.131Z,1006.17
2019-05-26T10:57:24.160Z,1006.11
2019-05-26T10:58:24.194Z,1006.19
2019-05-26T10:59:24.223Z,1006.15
2019-05-26T11:00:24.254Z,1006.13
2019-05-26T11:01:24.283Z,1006.10
2019-05-26T11:02:24.313Z,1006.06
2019-05-26T11:03:24.353Z,1006.03
2019-05-26T11:04:24.377Z,1006.03
2019-05-26T11:05:24.408Z,1005.99
2019-05-26T11:06:24.438Z,1006.05
2019-05-26T11:07:26.881Z,1006.05
2019-05-26T11:08:24.499Z,1006.04
2019-05-26T11:09:24.556Z,1006.03
2019-05-26T11:10:24.561Z,1006.04
2019-05-26T11:11:24.595Z,1006.01
2019-05-26T11:12:24.623Z,1006.01
2019-05-26T11:13:24.651Z,1005.94
2019-05-26T11:14:24.684Z,1005.94
2019-05-26T11:15:24.713Z,1006.00
2019-05-26T11:16:24.744Z,1005.92
2019-05-26T11:17:24.775Z,1005.93
2019-05-26T11:18:24.811Z,1005.96
2019-05-26T11:19:24.844Z,1005.91
2019-05-26T11:20:24.871Z,1005.94
2019-05-26T11:21:24.902Z,1005.89
2019-05-26T11:22:24.938Z,1005.83
2019-05-26T11:23:24.963Z,1005.88
2019-05-26T11:24:24.995Z,1005.88
2019-05-26T11:25:25.025Z,1005.85
2019-05-26T11:26:25.057Z,1005.83
2019-05-26T11:27:25.087Z,1005.77
2019-05-26T11:28:25.118Z,1005.74
2019-05-26T11:29:25.148Z,1005.80
2019-05-26T11:30:25.185Z,1005.75
2019-05-26T11:31:25.211Z,1005.87
2019-05-26T11:32:25.251Z,1005.85
2019-05-26T11:33:25.272Z,1005.82
2019-05-26T11:34:25.309Z,1005.84
2019-05-26T11:35:25.337Z,1005.74
2019-05-26T11:36:25.371Z,1005.84
2019-05-26T11:37:25.398Z,1005.89
2019-05-26T11:38:25.441Z,1005.75
2019-05-26T11:39:25.478Z,1005.76
2019-05-26T11:40:25.498Z,1005.69
2019-05-26T11:41:25.531Z,1005.71
2019-05-26T11:42:25.555Z,1005.77
2019-05-26T11:43:25.585Z,1005.83
2019-05-26T11:44:25.620Z,1005.80
2019-05-26T11:45:25.648Z,1005.79
2019-05-26T11:46:25.682Z,1005.77
2019-05-26T11:47:25.716Z,1005.72
2019-05-26T11:48:25.749Z,1005.65
2019-05-26T11:49:25.780Z,1005.65
2019-05-26T11:50:25.810Z,1005.58
2019-05-26T11:51:25.846Z,1005.57
2019-05-26T11:52:25.871Z,1005.49
2019-05-26T11:53:25.916Z,1005.45
2019-05-26T11:54:25.940Z,1005.51
2019-05-26T11:55:27.901Z,1005.45
2019-05-26T11:56:26.000Z,1005.37
2019-05-26T11:57:26.028Z,1005.46
2019-05-26T11:59:58.738Z,1005.43
2019-05-26T12:00:58.767Z,1005.38
2019-05-26T12:01:58.799Z,1005.45
2019-05-26T12:03:00.557Z,1005.40
2019-05-26T12:03:58.862Z,1005.46
2019-05-26T12:04:58.906Z,1005.44
2019-05-26T12:05:58.926Z,1005.43
2019-05-26T12:06:58.957Z,1005.43
2019-05-26T12:07:58.990Z,1005.49